KSAF/SAF METAR and TAF weather

Enter ICAO airport designator
Station Type Date Time Source
KSAF METAR 2019/10/21 01:53 UTC NOAA

KSAF 210153Z 28010KT 10SM CLR 06/M19 A3001 RMK AO2 SLP123 T00561194 PNO


Station Type Date Time Source
KSAF Decoded METAR 2019/10/21 01:53 UTC NOAA

SANTA FE COUNTY MUNICIPAL, NM, United States (KSAF) 35-37N 106-05W 1930M
Oct 20, 2019 - 09:53 PM EDT / 2019.10.21 0153 UTC
Wind: from the W (280 degrees) at 12 MPH (10 KT):0
Visibility: 10 mile(s):0
Sky conditions: clear
Temperature: 42.1 F (5.6 C)
Dew Point: -2.9 F (-19.4 C)
Relative Humidity: 14%
Pressure (altimeter): 30.01 in. Hg (1016 hPa)
ob: KSAF 210153Z 28010KT 10SM CLR 06/M19 A3001 RMK AO2 SLP123 T00561194 PNO
cycle: 2

Station Type Date Time Source
KSAF TAF 2019/10/20 18:39 UTC NOAA

TAF KSAF 201736Z 2018/2118 27018G38KT P6SM FEW120
FM202000 29027G37KT P6SM SKC
FM210100 31011KT P6SM SKC
FM210700 34009KT P6SM SKC
FM211600 29015G25KT P6SM SKC

Example: see airport list